Thursday, July 24, 2014
21:40 UTC
  |  Log In   |  Register Free
Airport Search:

Ellington Field Airport
(KEFD)

Ellington Field Airport Diagram
No Airport Diagram Available

FAA data valid effective July 24, 2014 until September 18, 2014 (unless otherwise noted).

 
 
 
 
 
 
 
 
 
 
 
 
 
 

Current Aviation Weather for Ellington Field Airport (KEFD)

The most recent METAR observation for KEFD was updated at: 1950 UTC
METAR Summary (Translated METAR)
KEFD
241950Z 10004KT 5SM TS HZ FEW015 SCT025CB BKN050 32/24 A3002 RMK OCNL LTICCG TS S MOV NE
KHOU
(6.7 nm NW from KEFD)
242036Z 19011KT 10SM -TSRA SCT029 BKN036CB BKN050 OVC250 25/21 A2999 RMK AO2 TSB36RAB20 OCNL LTGIC S TS S LTL MOV P0000
TAF Summary (Translated TAF)
KEFD
2323/2502 15009KT 9999 VCTS SCT030CB QNH2996INS TEMPO 2323/2403 15010G15KT 6000 -TSRA BKN025CB BECMG 2403/2404 VRB06KT 9999 NSW SCT035 QNH2996INS TEMPO 2419/2423 18010G15KT 6000 -TSRA BKN035CB TX33/2418Z TNN25/2411Z AMD 232336
KHOU
(6.7 nm NW from KEFD)
241929Z 2419/2518 33005KT P6SM VCTS SCT040CB TEMPO 2419/2423 VRB15G25KT 3SM TSRA BR BKN025CB FM250100 VRB04KT P6SM SCT250 FM251500 23005KT P6SM FEW030
  Airport Weather Conditions for KEFD

 Current Weather at EFD
90° F
Thunderstorm Haze
East winds at 4.6 mph
EFD NOAA Radar

Pressure: 30.02 in
Humidity: 63%
Wind: East at 4.6 MPH (4 KT)
Dew Point: 75.2°F
Visibility: 5.00 mi


Airport Weather Forecast for KEFD

Translated METAR and TAF for KEFD
Translated METAR for KEFD (2133 UTC 24 July 2014)
found at http://aviationweather.gov/adds/metars/
 
METAR text: KEFD 242050Z 22006KT 7SM FEW015 BKN050 30/24 A2999
Conditions at: KEFD (HOUSTON/ELLINGTO, TX, US) observed 2050 UTC 24 July 2014
Temperature: 30.0°C (86°F)
Dewpoint: 24.0°C (75°F) [RH = 70%]
Pressure (altimeter): 29.99 inches Hg (1015.7 mb)
Winds: from the SW (220 degrees) at 7 MPH (6 knots; 3.1 m/s)
Visibility: 7 miles (11 km)
Ceiling: 5000 feet AGL
Clouds: few clouds at 1500 feet AGL
broken clouds at 5000 feet AGL
Weather: no significant weather observed at this time
Translated TAF for KEFD
Forecast for: KEFD (HOUSTON/ELLINGTO, TX, US)
TAF Text: TAF AMD KEFD 2421/2602 17009KT 9999 FEW020 BKN050 QNH2996INS
Forecast period: 2100 UTC 24 July 2014 to 0000 UTC 25 July 2014
Forecast type: FROM: standard forecast or significant change
Winds: from the S (170 degrees) at 10 MPH (9 knots; 4.7 m/s)
Visibility: 6 or more miles (10+ km)
Ceiling: 5000 feet AGL
Clouds: few clouds at 2000 feet AGL
broken clouds at 5000 feet AGL
Weather: no significant weather forecast for this period
TAF Text: TEMPO 2421/2423 8000 -TSRA SCT025CB
Forecast period: 2100 to 2300 UTC 24 July 2014
Forecast type: TEMPORARY: The following changes expected for less than half the time period
Visibility: 5 miles (8 km)
Clouds: scattered clouds at 2500 feet AGL
Weather: -TSRA  (light rain associated with thunderstorm(s))
TAF Text: BECMG 2500/2501 17009KT 9999 SCT040 QNH3006INS
Forecast period: 0000 UTC 25 July 2014 to 0200 UTC 26 July 2014
Forecast type: BECOMING: Conditions expected to become as follows by 0100 UTC 25 July 2014
Winds: from the S (170 degrees) at 10 MPH (9 knots; 4.7 m/s)
Visibility: 6 or more miles (10+ km)
Clouds: scattered clouds at 4000 feet AGL
Weather: no significant weather forecast for this period
TAF Text: TEMPO 2520/2523 17010G15KT 8000 -TSRA BKN035CB TX31/2422Z TN24/2512Z AMD 242114
Forecast period: 2000 to 2300 UTC 25 July 2014
Forecast type: TEMPORARY: The following changes expected for less than half the time period
Winds: from the S (170 degrees) at 12 MPH (10 knots; 5.2 m/s)
gusting to 17 MPH (15 knots; 7.8 m/s)
Visibility: 5 miles (8 km)
Ceiling: 3500 feet AGL
Clouds: broken clouds at 3500 feet AGL
Weather: -TSRA  (light rain associated with thunderstorm(s))

Find All Airport Services Find A Hotel Find A Rental Car Find A Golf Course Find A Restaurant $100 Hamburger



FBO's on the Field
FBO Company Facility Photos Services Transportation Aviation Fuel Prices: Prices include tax
Catering Weather Repair Courtesy Rental Type 100LL JetA JetA+ MOGAS 8087
 
Southwest Airport Services

This FBO has not yet been rated
FS:Texaco
Last Updated: Jul-24
Login to update fuel prices
SS:
Contact Southwest Airport ServicesMore FBO Information
 
Add another FBO Facility Photos Catering Weather Repair Courtesy Rental Type 100LL JetA JetA+ MOGAS 8087
Services Transportation Aviation Fuel Prices: Prices include tax


GlobalAir.com Airport Resource Center model-print
model-print
model-print
model-print